sensor_id;sensor_type;location;lat;lon;timestamp;P1;durP1;ratioP1;P2;durP2;ratioP2
59872;SDS011;50750;51.636;4.948;2022-10-17T00:01:23;2.10;;;1.10;;
59872;SDS011;50750;51.636;4.948;2022-10-17T00:03:50;2.00;;;1.20;;
59872;SDS011;50750;51.636;4.948;2022-10-17T00:06:16;2.50;;;1.00;;
59872;SDS011;50750;51.636;4.948;2022-10-17T00:08:43;2.00;;;1.20;;
59872;SDS011;50750;51.636;4.948;2022-10-17T00:11:14;2.20;;;1.10;;
59872;SDS011;50750;51.636;4.948;2022-10-17T00:13:43;2.90;;;1.10;;
59872;SDS011;50750;51.636;4.948;2022-10-17T00:16:10;1.80;;;1.00;;
59872;SDS011;50750;51.636;4.948;2022-10-17T00:18:37;2.30;;;1.30;;
59872;SDS011;50750;51.636;4.948;2022-10-17T00:21:04;2.80;;;1.30;;
59872;SDS011;50750;51.636;4.948;2022-10-17T00:23:31;1.90;;;1.20;;
59872;SDS011;50750;51.636;4.948;2022-10-17T00:25:59;2.90;;;1.20;;
59872;SDS011;50750;51.636;4.948;2022-10-17T00:28:27;2.50;;;1.20;;
59872;SDS011;50750;51.636;4.948;2022-10-17T00:30:57;1.90;;;1.10;;
59872;SDS011;50750;51.636;4.948;2022-10-17T00:33:26;1.70;;;0.80;;
59872;SDS011;50750;51.636;4.948;2022-10-17T00:38:29;2.50;;;1.00;;
59872;SDS011;50750;51.636;4.948;2022-10-17T00:40:56;2.00;;;1.20;;
59872;SDS011;50750;51.636;4.948;2022-10-17T00:43:22;2.40;;;1.00;;
59872;SDS011;50750;51.636;4.948;2022-10-17T00:45:49;3.40;;;1.00;;
59872;SDS011;50750;51.636;4.948;2022-10-17T00:48:15;2.60;;;1.40;;
59872;SDS011;50750;51.636;4.948;2022-10-17T00:50:43;2.10;;;1.10;;
59872;SDS011;50750;51.636;4.948;2022-10-17T00:53:14;2.20;;;1.20;;
59872;SDS011;50750;51.636;4.948;2022-10-17T00:55:43;2.20;;;1.00;;
59872;SDS011;50750;51.636;4.948;2022-10-17T00:58:15;2.00;;;1.00;;
59872;SDS011;50750;51.636;4.948;2022-10-17T01:00:43;2.30;;;1.10;;
59872;SDS011;50750;51.636;4.948;2022-10-17T01:03:12;3.10;;;1.10;;
59872;SDS011;50750;51.636;4.948;2022-10-17T01:05:39;2.00;;;1.10;;
59872;SDS011;50750;51.636;4.948;2022-10-17T01:08:06;1.80;;;1.00;;
59872;SDS011;50750;51.636;4.948;2022-10-17T01:13:45;2.20;;;1.10;;
59872;SDS011;50750;51.636;4.948;2022-10-17T01:22:00;2.50;;;1.10;;
59872;SDS011;50750;51.636;4.948;2022-10-17T01:35:34;1.90;;;1.00;;
59872;SDS011;50750;51.636;4.948;2022-10-17T01:40:54;2.20;;;1.10;;
59872;SDS011;50750;51.636;4.948;2022-10-17T01:43:33;2.10;;;1.00;;
59872;SDS011;50750;51.636;4.948;2022-10-17T01:46:12;2.20;;;1.10;;
59872;SDS011;50750;51.636;4.948;2022-10-17T01:48:43;1.70;;;1.00;;
59872;SDS011;50750;51.636;4.948;2022-10-17T01:51:14;2.00;;;1.20;;
59872;SDS011;50750;51.636;4.948;2022-10-17T01:54:08;2.90;;;1.10;;
59872;SDS011;50750;51.636;4.948;2022-10-17T01:56:39;2.30;;;1.20;;
59872;SDS011;50750;51.636;4.948;2022-10-17T01:59:15;2.10;;;1.10;;
59872;SDS011;50750;51.636;4.948;2022-10-17T02:01:46;2.00;;;1.10;;
59872;SDS011;50750;51.636;4.948;2022-10-17T02:04:16;2.70;;;1.20;;
59872;SDS011;50750;51.636;4.948;2022-10-17T02:06:42;2.20;;;1.20;;
59872;SDS011;50750;51.636;4.948;2022-10-17T02:09:22;2.20;;;1.10;;
59872;SDS011;50750;51.636;4.948;2022-10-17T02:25:18;1.80;;;1.00;;
59872;SDS011;50750;51.636;4.948;2022-10-17T02:28:08;2.10;;;1.10;;
59872;SDS011;50750;51.636;4.948;2022-10-17T02:31:03;2.40;;;1.10;;
59872;SDS011;50750;51.636;4.948;2022-10-17T02:33:40;1.80;;;1.00;;
59872;SDS011;50750;51.636;4.948;2022-10-17T02:36:23;2.80;;;1.10;;
59872;SDS011;50750;51.636;4.948;2022-10-17T02:38:55;1.90;;;1.00;;
59872;SDS011;50750;51.636;4.948;2022-10-17T02:41:23;1.90;;;1.10;;
59872;SDS011;50750;51.636;4.948;2022-10-17T02:43:51;2.20;;;1.30;;
59872;SDS011;50750;51.636;4.948;2022-10-17T02:46:19;1.70;;;1.00;;
59872;SDS011;50750;51.636;4.948;2022-10-17T02:51:41;2.00;;;1.00;;
59872;SDS011;50750;51.636;4.948;2022-10-17T02:57:13;2.10;;;1.10;;
59872;SDS011;50750;51.636;4.948;2022-10-17T02:59:47;1.90;;;1.10;;
59872;SDS011;50750;51.636;4.948;2022-10-17T03:02:15;3.10;;;1.20;;
59872;SDS011;50750;51.636;4.948;2022-10-17T03:04:43;2.60;;;1.30;;
59872;SDS011;50750;51.636;4.948;2022-10-17T03:07:10;3.50;;;1.30;;
59872;SDS011;50750;51.636;4.948;2022-10-17T03:09:37;2.40;;;1.40;;
59872;SDS011;50750;51.636;4.948;2022-10-17T03:12:04;2.30;;;1.30;;
59872;SDS011;50750;51.636;4.948;2022-10-17T03:14:30;2.20;;;1.10;;
59872;SDS011;50750;51.636;4.948;2022-10-17T03:16:57;1.90;;;1.00;;
59872;SDS011;50750;51.636;4.948;2022-10-17T03:19:23;1.70;;;1.10;;
59872;SDS011;50750;51.636;4.948;2022-10-17T03:21:50;1.80;;;1.10;;
59872;SDS011;50750;51.636;4.948;2022-10-17T03:24:16;2.20;;;1.10;;
59872;SDS011;50750;51.636;4.948;2022-10-17T03:26:43;1.90;;;1.30;;
59872;SDS011;50750;51.636;4.948;2022-10-17T03:29:09;2.20;;;1.20;;
59872;SDS011;50750;51.636;4.948;2022-10-17T03:31:36;4.00;;;1.40;;
59872;SDS011;50750;51.636;4.948;2022-10-17T03:34:02;2.50;;;1.30;;
59872;SDS011;50750;51.636;4.948;2022-10-17T03:36:29;2.10;;;1.10;;
59872;SDS011;50750;51.636;4.948;2022-10-17T03:38:55;2.40;;;1.40;;
59872;SDS011;50750;51.636;4.948;2022-10-17T03:41:22;1.80;;;1.10;;
59872;SDS011;50750;51.636;4.948;2022-10-17T03:43:48;2.10;;;1.00;;
59872;SDS011;50750;51.636;4.948;2022-10-17T03:46:14;1.90;;;1.10;;
59872;SDS011;50750;51.636;4.948;2022-10-17T03:48:41;2.50;;;1.40;;
59872;SDS011;50750;51.636;4.948;2022-10-17T03:51:08;2.20;;;1.30;;
59872;SDS011;50750;51.636;4.948;2022-10-17T03:53:35;1.80;;;1.20;;
59872;SDS011;50750;51.636;4.948;2022-10-17T03:56:16;2.10;;;1.30;;
59872;SDS011;50750;51.636;4.948;2022-10-17T03:58:44;2.00;;;1.10;;
59872;SDS011;50750;51.636;4.948;2022-10-17T04:01:12;2.00;;;1.30;;
59872;SDS011;50750;51.636;4.948;2022-10-17T04:03:40;2.00;;;1.20;;
59872;SDS011;50750;51.636;4.948;2022-10-17T04:06:07;2.00;;;1.30;;
59872;SDS011;50750;51.636;4.948;2022-10-17T04:11:04;3.00;;;1.00;;
59872;SDS011;50750;51.636;4.948;2022-10-17T04:13:32;2.20;;;1.20;;
59872;SDS011;50750;51.636;4.948;2022-10-17T04:16:03;2.20;;;1.30;;
59872;SDS011;50750;51.636;4.948;2022-10-17T04:18:31;2.10;;;1.30;;
59872;SDS011;50750;51.636;4.948;2022-10-17T04:21:00;2.10;;;1.30;;
59872;SDS011;50750;51.636;4.948;2022-10-17T04:23:28;2.20;;;1.10;;
59872;SDS011;50750;51.636;4.948;2022-10-17T04:25:55;1.70;;;1.10;;
59872;SDS011;50750;51.636;4.948;2022-10-17T04:28:22;2.40;;;1.20;;
59872;SDS011;50750;51.636;4.948;2022-10-17T04:31:00;2.10;;;1.20;;
59872;SDS011;50750;51.636;4.948;2022-10-17T04:33:29;2.30;;;1.20;;
59872;SDS011;50750;51.636;4.948;2022-10-17T04:38:52;1.90;;;1.10;;
59872;SDS011;50750;51.636;4.948;2022-10-17T04:41:18;2.00;;;1.10;;
59872;SDS011;50750;51.636;4.948;2022-10-17T04:43:44;1.70;;;1.00;;
59872;SDS011;50750;51.636;4.948;2022-10-17T04:46:12;2.00;;;1.00;;
59872;SDS011;50750;51.636;4.948;2022-10-17T04:48:40;2.20;;;1.50;;
59872;SDS011;50750;51.636;4.948;2022-10-17T04:51:11;2.10;;;1.20;;
59872;SDS011;50750;51.636;4.948;2022-10-17T04:53:43;2.40;;;1.30;;
59872;SDS011;50750;51.636;4.948;2022-10-17T04:56:14;1.90;;;1.10;;
59872;SDS011;50750;51.636;4.948;2022-10-17T04:58:43;1.70;;;1.10;;
59872;SDS011;50750;51.636;4.948;2022-10-17T05:01:11;2.70;;;1.30;;
59872;SDS011;50750;51.636;4.948;2022-10-17T05:03:39;2.30;;;1.20;;
59872;SDS011;50750;51.636;4.948;2022-10-17T05:06:11;2.20;;;1.10;;
59872;SDS011;50750;51.636;4.948;2022-10-17T05:08:40;2.20;;;1.10;;
59872;SDS011;50750;51.636;4.948;2022-10-17T05:11:17;1.80;;;1.00;;
59872;SDS011;50750;51.636;4.948;2022-10-17T05:13:49;2.10;;;1.20;;
59872;SDS011;50750;51.636;4.948;2022-10-17T05:16:18;2.00;;;1.20;;
59872;SDS011;50750;51.636;4.948;2022-10-17T05:18:48;2.00;;;1.20;;
59872;SDS011;50750;51.636;4.948;2022-10-17T05:21:17;2.00;;;1.30;;
59872;SDS011;50750;51.636;4.948;2022-10-17T05:23:43;2.20;;;1.20;;
59872;SDS011;50750;51.636;4.948;2022-10-17T05:26:10;2.50;;;1.20;;
59872;SDS011;50750;51.636;4.948;2022-10-17T05:28:37;2.10;;;1.20;;
59872;SDS011;50750;51.636;4.948;2022-10-17T05:31:05;2.90;;;1.20;;
59872;SDS011;50750;51.636;4.948;2022-10-17T05:33:33;2.50;;;1.20;;
59872;SDS011;50750;51.636;4.948;2022-10-17T05:36:00;3.10;;;1.20;;
59872;SDS011;50750;51.636;4.948;2022-10-17T05:38:27;2.00;;;1.10;;
59872;SDS011;50750;51.636;4.948;2022-10-17T05:41:00;2.20;;;1.20;;
59872;SDS011;50750;51.636;4.948;2022-10-17T05:43:28;2.60;;;1.40;;
59872;SDS011;50750;51.636;4.948;2022-10-17T05:45:54;2.10;;;1.20;;
59872;SDS011;50750;51.636;4.948;2022-10-17T05:48:22;2.60;;;1.40;;
59872;SDS011;50750;51.636;4.948;2022-10-17T05:50:49;2.10;;;1.20;;
59872;SDS011;50750;51.636;4.948;2022-10-17T05:53:22;2.90;;;1.40;;
59872;SDS011;50750;51.636;4.948;2022-10-17T05:55:55;2.00;;;1.20;;
59872;SDS011;50750;51.636;4.948;2022-10-17T05:58:23;2.00;;;1.20;;
59872;SDS011;50750;51.636;4.948;2022-10-17T06:00:49;2.20;;;1.10;;
59872;SDS011;50750;51.636;4.948;2022-10-17T06:03:16;2.50;;;1.30;;
59872;SDS011;50750;51.636;4.948;2022-10-17T06:05:42;2.00;;;1.10;;
59872;SDS011;50750;51.636;4.948;2022-10-17T06:08:08;2.20;;;1.20;;
59872;SDS011;50750;51.636;4.948;2022-10-17T06:10:35;2.60;;;1.10;;
59872;SDS011;50750;51.636;4.948;2022-10-17T06:13:01;2.20;;;1.40;;
59872;SDS011;50750;51.636;4.948;2022-10-17T06:15:27;1.90;;;1.30;;
59872;SDS011;50750;51.636;4.948;2022-10-17T06:17:54;1.90;;;1.10;;
59872;SDS011;50750;51.636;4.948;2022-10-17T06:20:20;2.20;;;1.30;;
59872;SDS011;50750;51.636;4.948;2022-10-17T06:22:47;2.30;;;1.30;;
59872;SDS011;50750;51.636;4.948;2022-10-17T06:25:13;2.20;;;1.30;;
59872;SDS011;50750;51.636;4.948;2022-10-17T06:27:40;2.40;;;1.50;;
59872;SDS011;50750;51.636;4.948;2022-10-17T06:30:06;2.20;;;1.30;;
59872;SDS011;50750;51.636;4.948;2022-10-17T06:32:33;2.70;;;1.20;;
59872;SDS011;50750;51.636;4.948;2022-10-17T06:35:00;1.90;;;1.10;;
59872;SDS011;50750;51.636;4.948;2022-10-17T06:37:29;2.00;;;1.20;;
59872;SDS011;50750;51.636;4.948;2022-10-17T06:39:58;2.30;;;1.30;;
59872;SDS011;50750;51.636;4.948;2022-10-17T06:42:24;3.30;;;1.10;;
59872;SDS011;50750;51.636;4.948;2022-10-17T06:44:51;1.80;;;1.20;;
59872;SDS011;50750;51.636;4.948;2022-10-17T06:47:17;2.00;;;1.20;;
59872;SDS011;50750;51.636;4.948;2022-10-17T06:49:43;2.70;;;1.30;;
59872;SDS011;50750;51.636;4.948;2022-10-17T06:52:10;2.20;;;1.40;;
59872;SDS011;50750;51.636;4.948;2022-10-17T06:54:36;2.00;;;1.10;;
59872;SDS011;50750;51.636;4.948;2022-10-17T06:57:03;2.10;;;1.30;;
59872;SDS011;50750;51.636;4.948;2022-10-17T06:59:29;2.00;;;1.30;;
59872;SDS011;50750;51.636;4.948;2022-10-17T07:01:55;2.00;;;1.20;;
59872;SDS011;50750;51.636;4.948;2022-10-17T07:04:22;1.80;;;1.20;;
59872;SDS011;50750;51.636;4.948;2022-10-17T07:06:48;2.10;;;1.10;;
59872;SDS011;50750;51.636;4.948;2022-10-17T07:09:15;2.10;;;1.20;;
59872;SDS011;50750;51.636;4.948;2022-10-17T07:11:42;1.80;;;1.10;;
59872;SDS011;50750;51.636;4.948;2022-10-17T07:14:08;1.70;;;1.20;;
59872;SDS011;50750;51.636;4.948;2022-10-17T07:16:35;2.30;;;1.30;;
59872;SDS011;50750;51.636;4.948;2022-10-17T07:19:02;2.50;;;1.40;;
59872;SDS011;50750;51.636;4.948;2022-10-17T07:21:29;2.10;;;1.30;;
59872;SDS011;50750;51.636;4.948;2022-10-17T07:23:56;1.90;;;1.20;;
59872;SDS011;50750;51.636;4.948;2022-10-17T07:26:22;2.40;;;1.20;;
59872;SDS011;50750;51.636;4.948;2022-10-17T07:28:51;2.00;;;1.30;;
59872;SDS011;50750;51.636;4.948;2022-10-17T07:31:20;2.30;;;1.40;;
59872;SDS011;50750;51.636;4.948;2022-10-17T07:33:48;2.00;;;1.30;;
59872;SDS011;50750;51.636;4.948;2022-10-17T07:36:15;2.10;;;1.20;;
59872;SDS011;50750;51.636;4.948;2022-10-17T07:38:42;2.10;;;1.20;;
59872;SDS011;50750;51.636;4.948;2022-10-17T07:41:09;2.10;;;1.30;;
59872;SDS011;50750;51.636;4.948;2022-10-17T07:43:37;2.50;;;1.40;;
59872;SDS011;50750;51.636;4.948;2022-10-17T07:46:04;2.50;;;1.50;;
59872;SDS011;50750;51.636;4.948;2022-10-17T07:48:31;2.10;;;1.30;;
59872;SDS011;50750;51.636;4.948;2022-10-17T07:51:00;2.50;;;1.40;;
59872;SDS011;50750;51.636;4.948;2022-10-17T07:53:27;2.40;;;1.40;;
59872;SDS011;50750;51.636;4.948;2022-10-17T07:55:54;2.40;;;1.50;;
59872;SDS011;50750;51.636;4.948;2022-10-17T07:58:20;2.70;;;2.00;;
59872;SDS011;50750;51.636;4.948;2022-10-17T08:00:47;2.70;;;1.40;;
59872;SDS011;50750;51.636;4.948;2022-10-17T08:03:14;4.00;;;1.30;;
59872;SDS011;50750;51.636;4.948;2022-10-17T08:05:40;2.10;;;1.30;;
59872;SDS011;50750;51.636;4.948;2022-10-17T08:08:07;3.10;;;1.40;;
59872;SDS011;50750;51.636;4.948;2022-10-17T08:10:34;3.40;;;1.40;;
59872;SDS011;50750;51.636;4.948;2022-10-17T08:13:00;2.70;;;1.50;;
59872;SDS011;50750;51.636;4.948;2022-10-17T08:15:26;2.70;;;1.40;;
59872;SDS011;50750;51.636;4.948;2022-10-17T08:17:53;2.40;;;1.50;;
59872;SDS011;50750;51.636;4.948;2022-10-17T08:20:20;2.20;;;1.30;;
59872;SDS011;50750;51.636;4.948;2022-10-17T08:22:51;2.40;;;1.30;;
59872;SDS011;50750;51.636;4.948;2022-10-17T08:25:18;2.70;;;1.70;;
59872;SDS011;50750;51.636;4.948;2022-10-17T08:27:45;2.50;;;1.60;;
59872;SDS011;50750;51.636;4.948;2022-10-17T08:30:12;2.40;;;1.50;;
59872;SDS011;50750;51.636;4.948;2022-10-17T08:32:38;2.70;;;1.60;;
59872;SDS011;50750;51.636;4.948;2022-10-17T08:35:05;2.50;;;1.30;;
59872;SDS011;50750;51.636;4.948;2022-10-17T08:37:32;2.80;;;1.40;;
59872;SDS011;50750;51.636;4.948;2022-10-17T08:39:58;2.60;;;1.50;;
59872;SDS011;50750;51.636;4.948;2022-10-17T08:42:32;2.30;;;1.30;;
59872;SDS011;50750;51.636;4.948;2022-10-17T08:45:15;5.10;;;2.20;;
59872;SDS011;50750;51.636;4.948;2022-10-17T08:47:59;4.90;;;3.50;;
59872;SDS011;50750;51.636;4.948;2022-10-17T08:50:41;3.10;;;2.20;;
59872;SDS011;50750;51.636;4.948;2022-10-17T08:53:23;3.20;;;2.00;;
59872;SDS011;50750;51.636;4.948;2022-10-17T08:55:52;3.50;;;2.00;;
59872;SDS011;50750;51.636;4.948;2022-10-17T08:58:30;3.90;;;2.30;;
59872;SDS011;50750;51.636;4.948;2022-10-17T09:01:19;7.40;;;2.90;;
59872;SDS011;50750;51.636;4.948;2022-10-17T09:12:13;7.80;;;3.70;;
59872;SDS011;50750;51.636;4.948;2022-10-17T09:17:54;9.90;;;5.10;;
59872;SDS011;50750;51.636;4.948;2022-10-17T09:20:47;7.00;;;4.60;;
59872;SDS011;50750;51.636;4.948;2022-10-17T09:23:25;10.90;;;4.60;;
59872;SDS011;50750;51.636;4.948;2022-10-17T09:25:57;19.20;;;4.10;;
59872;SDS011;50750;51.636;4.948;2022-10-17T09:28:35;59.20;;;6.00;;
59872;SDS011;50750;51.636;4.948;2022-10-17T09:31:05;20.70;;;4.00;;
59872;SDS011;50750;51.636;4.948;2022-10-17T09:33:37;9.20;;;3.60;;
59872;SDS011;50750;51.636;4.948;2022-10-17T09:36:11;5.90;;;3.00;;
59872;SDS011;50750;51.636;4.948;2022-10-17T09:38:59;4.80;;;2.70;;
59872;SDS011;50750;51.636;4.948;2022-10-17T09:43:57;5.10;;;3.40;;
59872;SDS011;50750;51.636;4.948;2022-10-17T09:46:35;3.60;;;2.50;;
59872;SDS011;50750;51.636;4.948;2022-10-17T09:49:20;4.30;;;2.60;;
59872;SDS011;50750;51.636;4.948;2022-10-17T09:51:57;5.50;;;2.80;;
59872;SDS011;50750;51.636;4.948;2022-10-17T09:54:25;6.90;;;2.90;;
59872;SDS011;50750;51.636;4.948;2022-10-17T09:57:03;6.80;;;3.00;;
59872;SDS011;50750;51.636;4.948;2022-10-17T09:59:41;6.00;;;2.90;;
59872;SDS011;50750;51.636;4.948;2022-10-17T10:02:17;4.70;;;2.70;;
59872;SDS011;50750;51.636;4.948;2022-10-17T10:04:53;5.00;;;2.50;;
59872;SDS011;50750;51.636;4.948;2022-10-17T10:07:28;3.90;;;2.40;;
59872;SDS011;50750;51.636;4.948;2022-10-17T10:09:57;5.90;;;3.10;;
59872;SDS011;50750;51.636;4.948;2022-10-17T10:12:29;5.60;;;2.80;;
59872;SDS011;50750;51.636;4.948;2022-10-17T10:15:39;6.70;;;2.60;;
59872;SDS011;50750;51.636;4.948;2022-10-17T10:21:07;4.00;;;2.40;;
59872;SDS011;50750;51.636;4.948;2022-10-17T10:23:35;5.40;;;2.90;;
59872;SDS011;50750;51.636;4.948;2022-10-17T10:26:19;4.50;;;2.70;;
59872;SDS011;50750;51.636;4.948;2022-10-17T10:29:17;5.20;;;3.00;;
59872;SDS011;50750;51.636;4.948;2022-10-17T10:31:58;4.90;;;2.70;;
59872;SDS011;50750;51.636;4.948;2022-10-17T10:37:18;5.00;;;2.50;;
59872;SDS011;50750;51.636;4.948;2022-10-17T10:42:26;5.90;;;2.80;;
59872;SDS011;50750;51.636;4.948;2022-10-17T10:45:02;4.80;;;2.80;;
59872;SDS011;50750;51.636;4.948;2022-10-17T10:48:00;3.90;;;2.50;;
59872;SDS011;50750;51.636;4.948;2022-10-17T10:50:38;6.70;;;2.90;;
59872;SDS011;50750;51.636;4.948;2022-10-17T10:59:14;5.30;;;2.80;;
59872;SDS011;50750;51.636;4.948;2022-10-17T11:02:18;4.40;;;2.70;;
59872;SDS011;50750;51.636;4.948;2022-10-17T11:04:55;5.00;;;3.00;;
59872;SDS011;50750;51.636;4.948;2022-10-17T11:10:07;5.90;;;3.60;;
59872;SDS011;50750;51.636;4.948;2022-10-17T11:12:50;7.60;;;2.80;;
59872;SDS011;50750;51.636;4.948;2022-10-17T11:20:23;4.80;;;2.60;;
59872;SDS011;50750;51.636;4.948;2022-10-17T11:22:57;5.60;;;2.70;;
59872;SDS011;50750;51.636;4.948;2022-10-17T11:25:37;6.50;;;3.00;;
59872;SDS011;50750;51.636;4.948;2022-10-17T11:28:10;4.80;;;3.20;;
59872;SDS011;50750;51.636;4.948;2022-10-17T11:30:43;7.90;;;4.10;;
59872;SDS011;50750;51.636;4.948;2022-10-17T11:33:11;5.40;;;2.90;;
59872;SDS011;50750;51.636;4.948;2022-10-17T11:35:44;4.00;;;2.90;;
59872;SDS011;50750;51.636;4.948;2022-10-17T11:41:28;6.60;;;3.00;;
59872;SDS011;50750;51.636;4.948;2022-10-17T11:44:06;4.40;;;2.60;;
59872;SDS011;50750;51.636;4.948;2022-10-17T11:46:57;6.10;;;2.50;;
59872;SDS011;50750;51.636;4.948;2022-10-17T11:49:31;4.00;;;2.60;;
59872;SDS011;50750;51.636;4.948;2022-10-17T11:54:53;6.90;;;2.40;;
59872;SDS011;50750;51.636;4.948;2022-10-17T11:57:43;4.50;;;3.00;;
59872;SDS011;50750;51.636;4.948;2022-10-17T12:00:46;5.90;;;3.10;;
59872;SDS011;50750;51.636;4.948;2022-10-17T12:11:50;4.40;;;2.60;;
59872;SDS011;50750;51.636;4.948;2022-10-17T12:22:55;4.30;;;3.10;;
59872;SDS011;50750;51.636;4.948;2022-10-17T12:25:32;6.00;;;2.90;;
59872;SDS011;50750;51.636;4.948;2022-10-17T12:28:11;5.80;;;3.50;;
59872;SDS011;50750;51.636;4.948;2022-10-17T12:30:51;4.80;;;3.80;;
59872;SDS011;50750;51.636;4.948;2022-10-17T12:33:29;6.10;;;3.70;;
59872;SDS011;50750;51.636;4.948;2022-10-17T12:38:46;6.30;;;4.60;;
59872;SDS011;50750;51.636;4.948;2022-10-17T12:41:14;6.10;;;5.20;;
59872;SDS011;50750;51.636;4.948;2022-10-17T12:43:51;6.20;;;4.30;;
59872;SDS011;50750;51.636;4.948;2022-10-17T12:49:23;7.20;;;4.00;;
59872;SDS011;50750;51.636;4.948;2022-10-17T13:00:31;8.20;;;4.80;;
59872;SDS011;50750;51.636;4.948;2022-10-17T13:03:13;6.20;;;5.00;;
59872;SDS011;50750;51.636;4.948;2022-10-17T13:05:44;8.70;;;4.70;;
59872;SDS011;50750;51.636;4.948;2022-10-17T13:08:15;7.50;;;4.50;;
59872;SDS011;50750;51.636;4.948;2022-10-17T13:10:48;5.80;;;4.40;;
59872;SDS011;50750;51.636;4.948;2022-10-17T13:13:20;7.10;;;5.00;;
59872;SDS011;50750;51.636;4.948;2022-10-17T13:15:52;8.00;;;5.20;;
59872;SDS011;50750;51.636;4.948;2022-10-17T13:18:23;9.90;;;5.40;;
59872;SDS011;50750;51.636;4.948;2022-10-17T13:23:38;5.70;;;4.40;;
59872;SDS011;50750;51.636;4.948;2022-10-17T13:28:37;6.30;;;4.60;;
59872;SDS011;50750;51.636;4.948;2022-10-17T13:31:04;7.30;;;4.10;;
59872;SDS011;50750;51.636;4.948;2022-10-17T13:33:37;8.50;;;4.40;;
59872;SDS011;50750;51.636;4.948;2022-10-17T13:36:06;6.90;;;4.50;;
59872;SDS011;50750;51.636;4.948;2022-10-17T13:38:38;8.00;;;5.50;;
59872;SDS011;50750;51.636;4.948;2022-10-17T13:41:08;6.10;;;5.00;;
59872;SDS011;50750;51.636;4.948;2022-10-17T13:43:37;9.00;;;5.60;;
59872;SDS011;50750;51.636;4.948;2022-10-17T13:46:04;8.00;;;5.20;;
59872;SDS011;50750;51.636;4.948;2022-10-17T13:48:33;7.90;;;5.60;;
59872;SDS011;50750;51.636;4.948;2022-10-17T13:51:03;6.40;;;5.20;;
59872;SDS011;50750;51.636;4.948;2022-10-17T13:53:39;6.30;;;4.80;;
59872;SDS011;50750;51.636;4.948;2022-10-17T13:58:42;8.10;;;4.40;;
59872;SDS011;50750;51.636;4.948;2022-10-17T14:01:12;5.70;;;4.50;;
59872;SDS011;50750;51.636;4.948;2022-10-17T14:03:43;6.10;;;4.00;;
59872;SDS011;50750;51.636;4.948;2022-10-17T14:06:26;6.10;;;4.20;;
59872;SDS011;50750;51.636;4.948;2022-10-17T14:09:29;8.40;;;4.20;;
59872;SDS011;50750;51.636;4.948;2022-10-17T14:11:58;6.30;;;3.80;;
59872;SDS011;50750;51.636;4.948;2022-10-17T14:14:36;5.70;;;4.30;;
59872;SDS011;50750;51.636;4.948;2022-10-17T14:17:14;6.50;;;4.30;;
59872;SDS011;50750;51.636;4.948;2022-10-17T14:19:50;5.80;;;4.10;;
59872;SDS011;50750;51.636;4.948;2022-10-17T14:24:48;5.20;;;3.80;;
59872;SDS011;50750;51.636;4.948;2022-10-17T14:32:56;7.10;;;4.10;;
59872;SDS011;50750;51.636;4.948;2022-10-17T14:35:26;7.50;;;4.00;;
59872;SDS011;50750;51.636;4.948;2022-10-17T14:37:56;5.20;;;3.90;;
59872;SDS011;50750;51.636;4.948;2022-10-17T14:40:26;3.90;;;3.50;;
59872;SDS011;50750;51.636;4.948;2022-10-17T14:42:58;6.30;;;4.00;;
59872;SDS011;50750;51.636;4.948;2022-10-17T14:45:29;5.60;;;4.00;;
59872;SDS011;50750;51.636;4.948;2022-10-17T14:48:09;7.20;;;4.00;;
59872;SDS011;50750;51.636;4.948;2022-10-17T14:50:40;6.00;;;4.10;;
59872;SDS011;50750;51.636;4.948;2022-10-17T14:55:38;5.20;;;3.90;;
59872;SDS011;50750;51.636;4.948;2022-10-17T14:58:16;6.90;;;4.20;;
59872;SDS011;50750;51.636;4.948;2022-10-17T15:00:53;5.60;;;3.60;;
59872;SDS011;50750;51.636;4.948;2022-10-17T15:03:20;5.90;;;4.00;;
59872;SDS011;50750;51.636;4.948;2022-10-17T15:05:47;5.70;;;4.30;;
59872;SDS011;50750;51.636;4.948;2022-10-17T15:08:15;7.40;;;4.30;;
59872;SDS011;50750;51.636;4.948;2022-10-17T15:10:44;6.40;;;4.50;;
59872;SDS011;50750;51.636;4.948;2022-10-17T15:13:11;6.20;;;4.00;;
59872;SDS011;50750;51.636;4.948;2022-10-17T15:15:39;5.40;;;4.00;;
59872;SDS011;50750;51.636;4.948;2022-10-17T15:18:06;7.00;;;4.10;;
59872;SDS011;50750;51.636;4.948;2022-10-17T15:20:39;6.20;;;4.30;;
59872;SDS011;50750;51.636;4.948;2022-10-17T15:23:07;6.20;;;4.40;;
59872;SDS011;50750;51.636;4.948;2022-10-17T15:25:34;5.60;;;4.00;;
59872;SDS011;50750;51.636;4.948;2022-10-17T15:28:00;7.50;;;3.90;;
59872;SDS011;50750;51.636;4.948;2022-10-17T15:30:28;6.10;;;4.00;;
59872;SDS011;50750;51.636;4.948;2022-10-17T15:32:59;5.20;;;4.10;;
59872;SDS011;50750;51.636;4.948;2022-10-17T15:35:26;6.70;;;3.90;;
59872;SDS011;50750;51.636;4.948;2022-10-17T15:37:53;10.00;;;4.80;;
59872;SDS011;50750;51.636;4.948;2022-10-17T15:40:21;6.00;;;4.20;;
59872;SDS011;50750;51.636;4.948;2022-10-17T15:42:50;6.60;;;3.80;;
59872;SDS011;50750;51.636;4.948;2022-10-17T15:45:17;5.60;;;3.90;;
59872;SDS011;50750;51.636;4.948;2022-10-17T15:47:53;7.50;;;3.70;;
59872;SDS011;50750;51.636;4.948;2022-10-17T15:50:24;7.50;;;4.00;;
59872;SDS011;50750;51.636;4.948;2022-10-17T15:52:50;5.60;;;3.60;;
59872;SDS011;50750;51.636;4.948;2022-10-17T15:55:17;5.30;;;3.90;;
59872;SDS011;50750;51.636;4.948;2022-10-17T15:57:45;6.90;;;3.60;;
59872;SDS011;50750;51.636;4.948;2022-10-17T16:00:14;5.70;;;3.50;;
59872;SDS011;50750;51.636;4.948;2022-10-17T16:02:47;4.00;;;3.00;;
59872;SDS011;50750;51.636;4.948;2022-10-17T16:07:48;6.50;;;3.50;;
59872;SDS011;50750;51.636;4.948;2022-10-17T16:10:15;5.60;;;3.50;;
59872;SDS011;50750;51.636;4.948;2022-10-17T16:12:42;6.00;;;4.10;;
59872;SDS011;50750;51.636;4.948;2022-10-17T16:15:13;5.50;;;3.90;;
59872;SDS011;50750;51.636;4.948;2022-10-17T16:17:40;6.50;;;3.60;;
59872;SDS011;50750;51.636;4.948;2022-10-17T16:20:12;5.60;;;3.40;;
59872;SDS011;50750;51.636;4.948;2022-10-17T16:22:38;7.10;;;3.70;;
59872;SDS011;50750;51.636;4.948;2022-10-17T16:25:28;6.90;;;3.80;;
59872;SDS011;50750;51.636;4.948;2022-10-17T16:27:55;5.50;;;3.30;;
59872;SDS011;50750;51.636;4.948;2022-10-17T16:32:52;6.10;;;3.80;;
59872;SDS011;50750;51.636;4.948;2022-10-17T16:35:26;6.40;;;3.40;;
59872;SDS011;50750;51.636;4.948;2022-10-17T16:37:54;6.60;;;3.70;;
59872;SDS011;50750;51.636;4.948;2022-10-17T16:40:22;6.30;;;3.60;;
59872;SDS011;50750;51.636;4.948;2022-10-17T16:42:49;6.00;;;3.30;;
59872;SDS011;50750;51.636;4.948;2022-10-17T16:45:17;5.50;;;3.80;;
59872;SDS011;50750;51.636;4.948;2022-10-17T16:47:45;6.30;;;3.80;;
59872;SDS011;50750;51.636;4.948;2022-10-17T16:50:13;5.40;;;3.60;;
59872;SDS011;50750;51.636;4.948;2022-10-17T16:52:40;5.80;;;3.30;;
59872;SDS011;50750;51.636;4.948;2022-10-17T16:55:07;5.80;;;3.40;;
59872;SDS011;50750;51.636;4.948;2022-10-17T16:57:35;6.70;;;3.20;;
59872;SDS011;50750;51.636;4.948;2022-10-17T17:00:02;7.50;;;3.40;;
59872;SDS011;50750;51.636;4.948;2022-10-17T17:02:29;5.80;;;3.70;;
59872;SDS011;50750;51.636;4.948;2022-10-17T17:04:56;6.20;;;3.60;;
59872;SDS011;50750;51.636;4.948;2022-10-17T17:07:22;7.60;;;3.60;;
59872;SDS011;50750;51.636;4.948;2022-10-17T17:09:49;5.00;;;3.90;;
59872;SDS011;50750;51.636;4.948;2022-10-17T17:12:16;7.40;;;3.70;;
59872;SDS011;50750;51.636;4.948;2022-10-17T17:14:43;5.70;;;3.40;;
59872;SDS011;50750;51.636;4.948;2022-10-17T17:17:09;6.50;;;3.80;;
59872;SDS011;50750;51.636;4.948;2022-10-17T17:19:36;6.10;;;4.40;;
59872;SDS011;50750;51.636;4.948;2022-10-17T17:22:02;8.80;;;4.50;;
59872;SDS011;50750;51.636;4.948;2022-10-17T17:24:29;7.80;;;4.90;;
59872;SDS011;50750;51.636;4.948;2022-10-17T17:26:55;7.10;;;4.40;;
59872;SDS011;50750;51.636;4.948;2022-10-17T17:29:22;9.90;;;4.80;;
59872;SDS011;50750;51.636;4.948;2022-10-17T17:31:50;7.10;;;4.60;;
59872;SDS011;50750;51.636;4.948;2022-10-17T17:34:16;7.40;;;5.00;;
59872;SDS011;50750;51.636;4.948;2022-10-17T17:36:43;11.00;;;5.60;;